Time;durP1;ratioP1;P1;durP2;ratioP2;P2;SDS_P1;SDS_P2;PMS_P1;PMS_P2;Temp;Humidity;BMP_temperature;BMP_pressure;BME280_temperature;BME280_humidity;BME280_pressure;Samples;Min_cycle;Max_cycle;Signal;HPM_P1;HPM_P2
2024/01/12 00:01:30;;;;;;;;;;;-0.70;78.10;;;;;;4129459;28;19929;-84
2024/01/12 00:03:49;;;;;;;;;;;-0.70;77.40;;;;;;4129935;28;19928;-84
2024/01/12 00:06:08;;;;;;;;;;;-0.70;77.40;;;;;;4133876;28;19930;-84
2024/01/12 00:08:28;;;;;;;;;;;-0.70;77.40;;;;;;4129797;28;19972;-84
2024/01/12 00:10:48;;;;;;;;;;;-0.80;78.20;;;;;;4129803;28;19983;-84
2024/01/12 00:13:08;;;;;;;;;;;-0.80;78.20;;;;;;4129898;28;20017;-84
2024/01/12 00:15:27;;;;;;;;;;;-0.80;77.50;;;;;;4130456;28;19955;-84
2024/01/12 00:17:46;;;;;;;;;;;-0.80;77.50;;;;;;4133675;28;19920;-84
2024/01/12 00:20:06;;;;;;;;;;;-0.80;77.50;;;;;;4129881;28;19928;-84
2024/01/12 00:22:25;;;;;;;;;;;-0.80;77.50;;;;;;4128468;28;20254;-84
2024/01/12 00:24:44;;;;;;;;;;;-0.90;77.40;;;;;;4129594;28;19924;-84
2024/01/12 00:27:04;;;;;;;;;;;-0.90;78.20;;;;;;4128832;28;19925;-84
2024/01/12 00:29:23;;;;;;;;;;;-0.90;77.50;;;;;;4132201;28;19928;-83
2024/01/12 00:31:42;;;;;;;;;;;-0.90;77.50;;;;;;4128495;28;19932;-84
2024/01/12 00:34:01;;;;;;;;;;;-0.80;77.60;;;;;;4132696;28;19924;-84
2024/01/12 00:36:22;;;;;;;;;;;-1.00;78.30;;;;;;4127950;28;20146;-85
2024/01/12 00:38:41;;;;;;;;;;;-1.00;77.60;;;;;;4136622;28;19972;-84
2024/01/12 00:41:02;;;;;;;;;;;-1.00;77.70;;;;;;4133346;28;19932;-85
2024/01/12 00:43:21;;;;;;;;;;;-1.00;77.80;;;;;;4128332;28;19929;-84
2024/01/12 00:45:40;;;;;;;;;;;-1.00;77.90;;;;;;4130204;28;19963;-85
2024/01/12 00:47:59;;;;;;;;;;;-1.00;78.10;;;;;;4145093;28;19968;-85
2024/01/12 00:50:19;;;;;;;;;;;-1.00;78.20;;;;;;4131220;28;19952;-84
2024/01/12 00:52:38;;;;;;;;;;;-1.00;78.30;;;;;;4130312;28;19984;-84
2024/01/12 00:54:59;;;;;;;;;;;-1.00;78.40;;;;;;4143295;28;19980;-84
2024/01/12 00:57:19;;;;;;;;;;;-1.10;78.30;;;;;;4126758;28;19928;-85
2024/01/12 00:59:38;;;;;;;;;;;-1.00;78.50;;;;;;4126706;28;19944;-84
2024/01/12 01:01:58;;;;;;;;;;;-1.00;79.30;;;;;;4127026;28;19959;-84
2024/01/12 01:04:17;;;;;;;;;;;-1.00;79.30;;;;;;4130142;28;20005;-84
2024/01/12 01:06:36;;;;;;;;;;;-1.00;78.60;;;;;;4129650;28;20005;-85
2024/01/12 01:08:56;;;;;;;;;;;-1.00;78.60;;;;;;4129128;28;19964;-85
2024/01/12 01:11:16;;;;;;;;;;;-1.00;78.60;;;;;;4125362;28;19967;-83
2024/01/12 01:13:36;;;;;;;;;;;-1.00;78.70;;;;;;4129005;28;19924;-84
2024/01/12 01:15:55;;;;;;;;;;;-1.10;78.60;;;;;;4126873;28;21227;-85
2024/01/12 01:18:16;;;;;;;;;;;-1.00;78.70;;;;;;4129956;28;19995;-83
2024/01/12 01:20:35;;;;;;;;;;;-1.00;78.70;;;;;;4125420;28;19920;-84
2024/01/12 01:22:55;;;;;;;;;;;-1.00;79.50;;;;;;4125663;28;19979;-84
2024/01/12 01:25:14;;;;;;;;;;;-1.00;78.80;;;;;;4132137;28;19948;-84
2024/01/12 01:27:33;;;;;;;;;;;-1.00;78.80;;;;;;4130678;28;19999;-84
2024/01/12 01:29:53;;;;;;;;;;;-1.00;78.80;;;;;;4131137;28;20012;-84
2024/01/12 01:32:12;;;;;;;;;;;-1.00;78.80;;;;;;4115361;28;19944;-83
2024/01/12 01:34:31;;;;;;;;;;;-1.00;78.80;;;;;;4125386;28;19945;-84
2024/01/12 01:36:50;;;;;;;;;;;-1.00;79.50;;;;;;4127909;28;20788;-84
2024/01/12 01:39:10;;;;;;;;;;;-1.00;78.80;;;;;;4129663;28;19932;-83
2024/01/12 01:41:29;;;;;;;;;;;-1.00;78.70;;;;;;4126479;28;19920;-84
2024/01/12 01:43:48;;;;;;;;;;;-1.00;78.70;;;;;;4127583;28;19980;-84
2024/01/12 01:46:08;;;;;;;;;;;-1.00;78.60;;;;;;4128719;28;19925;-85
2024/01/12 01:48:27;;;;;;;;;;;-0.90;79.30;;;;;;4128477;28;20037;-84
2024/01/12 01:50:47;;;;;;;;;;;-1.00;79.20;;;;;;4125599;28;19932;-84
2024/01/12 01:53:09;;;;;;;;;;;-1.00;78.40;;;;;;4132921;28;19956;-83
2024/01/12 01:55:29;;;;;;;;;;;-1.00;78.30;;;;;;4126628;28;19928;-83
2024/01/12 01:57:49;;;;;;;;;;;-1.10;79.00;;;;;;4125026;28;19945;-84
2024/01/12 02:00:12;;;;;;;;;;;-1.10;78.20;;;;;;4126308;28;19925;-85
2024/01/12 02:02:31;;;;;;;;;;;-1.10;78.10;;;;;;4128849;28;20009;-86
2024/01/12 02:04:50;;;;;;;;;;;-1.10;78.10;;;;;;4130579;28;19920;-85
2024/01/12 02:07:09;;;;;;;;;;;-1.20;78.70;;;;;;4139248;28;19960;-85
2024/01/12 02:09:31;;;;;;;;;;;-1.20;77.90;;;;;;4127058;28;19928;-86
2024/01/12 02:11:50;;;;;;;;;;;-1.20;77.90;;;;;;4130835;28;19928;-86
2024/01/12 02:14:10;;;;;;;;;;;-1.20;77.90;;;;;;4129095;28;19920;-86
2024/01/12 02:16:29;;;;;;;;;;;-1.30;77.80;;;;;;4128521;28;20092;-85
2024/01/12 02:18:48;;;;;;;;;;;-1.30;77.80;;;;;;4130461;28;19977;-85
2024/01/12 02:21:07;;;;;;;;;;;-1.30;77.90;;;;;;4127635;28;19932;-85
2024/01/12 02:23:27;;;;;;;;;;;-1.40;77.80;;;;;;4129863;28;19951;-85
2024/01/12 02:25:46;;;;;;;;;;;-1.30;78.70;;;;;;4130451;28;20013;-84
2024/01/12 02:28:05;;;;;;;;;;;-1.40;77.90;;;;;;4127588;28;19920;-84
2024/01/12 02:30:25;;;;;;;;;;;-1.40;77.90;;;;;;4126311;28;19956;-84
2024/01/12 02:32:44;;;;;;;;;;;-1.20;78.10;;;;;;4128812;28;20018;-85
2024/01/12 02:35:03;;;;;;;;;;;-1.40;78.00;;;;;;4130838;28;19925;-85
2024/01/12 02:37:22;;;;;;;;;;;-1.40;78.00;;;;;;4129272;28;20586;-84
2024/01/12 02:39:42;;;;;;;;;;;-1.40;78.10;;;;;;4131426;28;20019;-84
2024/01/12 02:42:01;;;;;;;;;;;-1.40;77.90;;;;;;4130656;28;20015;-82
2024/01/12 02:44:20;;;;;;;;;;;-1.50;77.80;;;;;;4127833;28;19932;-82
2024/01/12 02:46:39;;;;;;;;;;;-1.50;77.80;;;;;;4130331;28;19920;-83
2024/01/12 02:48:58;;;;;;;;;;;-1.50;78.50;;;;;;4129364;28;19941;-83
2024/01/12 02:51:18;;;;;;;;;;;-1.50;78.50;;;;;;4130474;28;20391;-83
2024/01/12 02:53:37;;;;;;;;;;;-1.60;77.80;;;;;;4131368;28;20338;-83
2024/01/12 02:55:56;;;;;;;;;;;-1.60;77.80;;;;;;4129492;28;19972;-82
2024/01/12 02:58:16;;;;;;;;;;;-1.60;77.90;;;;;;4131797;28;20665;-82
2024/01/12 03:00:35;;;;;;;;;;;-1.60;78.00;;;;;;4132077;28;20029;-82
2024/01/12 03:02:54;;;;;;;;;;;-1.60;78.10;;;;;;4128790;28;19925;-83
2024/01/12 03:05:13;;;;;;;;;;;-1.60;78.10;;;;;;4128035;28;20005;-82
2024/01/12 03:07:33;;;;;;;;;;;-1.60;79.00;;;;;;4132538;28;19921;-81
2024/01/12 03:09:52;;;;;;;;;;;-1.50;78.40;;;;;;4130754;28;20004;-83
2024/01/12 03:12:11;;;;;;;;;;;-1.60;79.00;;;;;;4131239;28;20319;-82
2024/01/12 03:14:31;;;;;;;;;;;-1.60;78.40;;;;;;4130308;28;20014;-82
2024/01/12 03:16:50;;;;;;;;;;;-1.60;78.40;;;;;;4125665;28;19985;-82
2024/01/12 03:19:09;;;;;;;;;;;-1.60;78.40;;;;;;4133877;28;20624;-82
2024/01/12 03:21:28;;;;;;;;;;;-1.60;78.50;;;;;;4128792;28;19980;-82
2024/01/12 03:23:47;;;;;;;;;;;-1.60;78.60;;;;;;4130742;28;20704;-82
2024/01/12 03:26:07;;;;;;;;;;;-1.60;78.60;;;;;;4132245;28;19968;-83
2024/01/12 03:28:26;;;;;;;;;;;-1.60;78.70;;;;;;4146084;28;19928;-83
2024/01/12 03:30:45;;;;;;;;;;;-1.60;78.70;;;;;;4146553;28;20061;-83
2024/01/12 03:33:06;;;;;;;;;;;-1.60;78.70;;;;;;4138730;28;19981;-82
2024/01/12 03:35:25;;;;;;;;;;;-1.60;78.80;;;;;;4138082;28;19956;-83
2024/01/12 03:37:45;;;;;;;;;;;-1.60;79.50;;;;;;4132857;28;19956;-84
2024/01/12 03:40:04;;;;;;;;;;;-1.50;78.90;;;;;;4136515;28;19955;-83
2024/01/12 03:42:23;;;;;;;;;;;-1.60;79.60;;;;;;4149822;28;19960;-83
2024/01/12 03:44:42;;;;;;;;;;;-1.60;79.60;;;;;;4136464;28;20079;-83
2024/01/12 03:47:02;;;;;;;;;;;-1.50;79.70;;;;;;4135594;28;19978;-82
2024/01/12 03:49:22;;;;;;;;;;;-1.50;79.00;;;;;;4133506;28;20467;-83
2024/01/12 03:51:43;;;;;;;;;;;-1.50;79.00;;;;;;4124504;28;19933;-83
2024/01/12 03:54:02;;;;;;;;;;;-1.50;79.00;;;;;;4130594;28;19919;-82
2024/01/12 03:56:21;;;;;;;;;;;-1.50;79.00;;;;;;4131916;28;19959;-82
2024/01/12 03:58:40;;;;;;;;;;;-1.50;79.10;;;;;;4133911;28;20007;-83
2024/01/12 04:01:00;;;;;;;;;;;-1.50;79.10;;;;;;4134351;28;19945;-82
2024/01/12 04:03:19;;;;;;;;;;;-1.50;79.10;;;;;;4133295;28;19920;-83
2024/01/12 04:05:39;;;;;;;;;;;-1.50;79.10;;;;;;4132414;28;20017;-83
2024/01/12 04:07:58;;;;;;;;;;;-1.50;79.10;;;;;;4130423;28;20454;-83
2024/01/12 04:10:17;;;;;;;;;;;-1.50;79.10;;;;;;4147887;28;20656;-83
2024/01/12 04:12:37;;;;;;;;;;;-1.40;79.30;;;;;;4129314;28;19928;-83
2024/01/12 04:14:56;;;;;;;;;;;-1.40;79.80;;;;;;4132445;28;19932;-84
2024/01/12 04:17:16;;;;;;;;;;;-1.40;80.00;;;;;;4131021;28;19980;-84
2024/01/12 04:19:34;;;;;;;;;;;-1.40;79.30;;;;;;4131444;28;19964;-84
2024/01/12 04:21:54;;;;;;;;;;;-1.40;79.30;;;;;;4129935;28;19959;-83
2024/01/12 04:24:13;;;;;;;;;;;-1.40;79.30;;;;;;4128535;28;20445;-83
2024/01/12 04:26:32;;;;;;;;;;;-1.40;79.40;;;;;;4131680;28;20024;-83
2024/01/12 04:28:51;;;;;;;;;;;-1.40;79.40;;;;;;4131248;28;19920;-83
2024/01/12 04:31:11;;;;;;;;;;;-1.30;79.40;;;;;;4131416;28;19924;-83
2024/01/12 04:33:30;;;;;;;;;;;-1.40;79.40;;;;;;4130924;28;19921;-83
2024/01/12 04:35:50;;;;;;;;;;;-1.40;79.40;;;;;;4131904;28;20425;-83
2024/01/12 04:38:10;;;;;;;;;;;-1.40;79.40;;;;;;4134307;28;19977;-83
2024/01/12 04:40:29;;;;;;;;;;;-1.40;79.40;;;;;;4131810;28;19960;-83
2024/01/12 04:42:49;;;;;;;;;;;-1.30;79.50;;;;;;4130178;28;20509;-83
2024/01/12 04:45:08;;;;;;;;;;;-1.30;79.60;;;;;;4129496;28;19943;-83
2024/01/12 04:47:27;;;;;;;;;;;-1.30;80.30;;;;;;4130990;28;19922;-83
2024/01/12 04:49:46;;;;;;;;;;;-1.30;79.70;;;;;;4133269;28;20019;-84
2024/01/12 04:52:05;;;;;;;;;;;-1.30;79.70;;;;;;4133401;28;20021;-83
2024/01/12 04:54:25;;;;;;;;;;;-1.30;79.70;;;;;;4135923;28;20786;-82
2024/01/12 04:56:44;;;;;;;;;;;-1.20;79.80;;;;;;4135372;28;20422;-82
2024/01/12 04:59:03;;;;;;;;;;;-1.20;79.90;;;;;;4134740;28;20085;-82
2024/01/12 05:01:23;;;;;;;;;;;-1.20;79.90;;;;;;4143878;28;19932;-83
2024/01/12 05:03:45;;;;;;;;;;;-1.20;79.70;;;;;;4134948;28;19944;-83
2024/01/12 05:06:05;;;;;;;;;;;-1.20;79.70;;;;;;4139967;28;19928;-82
2024/01/12 05:08:24;;;;;;;;;;;-1.20;79.60;;;;;;4137638;28;20500;-83
2024/01/12 05:10:43;;;;;;;;;;;-1.20;79.60;;;;;;4139541;28;19944;-83
2024/01/12 05:13:03;;;;;;;;;;;-1.20;79.50;;;;;;4130930;28;19932;-84
2024/01/12 05:15:22;;;;;;;;;;;-1.20;79.50;;;;;;4131332;28;20718;-84
2024/01/12 05:17:41;;;;;;;;;;;-1.20;80.20;;;;;;4130331;28;20083;-84
2024/01/12 05:20:06;;;;;;;;;;;-1.20;79.50;;;;;;4132463;28;19921;-84
2024/01/12 05:22:26;;;;;;;;;;;-1.20;79.50;;;;;;4133157;28;19924;-84
2024/01/12 05:24:45;;;;;;;;;;;-1.20;79.50;;;;;;4131279;28;20287;-85
2024/01/12 05:27:04;;;;;;;;;;;-1.20;80.30;;;;;;4131833;28;19928;-84
2024/01/12 05:29:23;;;;;;;;;;;-1.10;80.30;;;;;;4130557;28;20641;-84
2024/01/12 05:31:43;;;;;;;;;;;-1.20;80.30;;;;;;4128761;28;19932;-84
2024/01/12 05:34:02;;;;;;;;;;;-1.20;80.30;;;;;;4133581;28;20028;-83
2024/01/12 05:36:22;;;;;;;;;;;-1.20;79.60;;;;;;4143059;28;19933;-84
2024/01/12 05:38:40;;;;;;;;;;;-1.20;79.60;;;;;;4127943;28;19964;-83
2024/01/12 05:41:00;;;;;;;;;;;-1.00;80.50;;;;;;4129204;28;19952;-84
2024/01/12 05:43:19;;;;;;;;;;;-1.20;79.70;;;;;;4130750;28;19928;-84
2024/01/12 05:45:38;;;;;;;;;;;-1.20;79.80;;;;;;4129162;28;21358;-83
2024/01/12 05:47:58;;;;;;;;;;;-1.10;80.00;;;;;;4130938;28;21455;-84
2024/01/12 05:50:19;;;;;;;;;;;-1.10;80.00;;;;;;4132619;28;20567;-84
2024/01/12 05:52:39;;;;;;;;;;;-1.10;80.00;;;;;;4128392;28;20394;-84
2024/01/12 05:54:58;;;;;;;;;;;-1.10;80.10;;;;;;4129712;28;19948;-84
2024/01/12 05:57:18;;;;;;;;;;;-1.10;80.00;;;;;;4130705;28;19927;-84
2024/01/12 05:59:37;;;;;;;;;;;-1.10;80.10;;;;;;4134221;28;19920;-84
2024/01/12 06:01:56;;;;;;;;;;;-1.00;80.20;;;;;;4131044;28;19948;-84
2024/01/12 06:04:15;;;;;;;;;;;-1.00;80.20;;;;;;4130451;28;19924;-85
2024/01/12 06:06:35;;;;;;;;;;;-1.00;80.20;;;;;;4129938;28;19924;-84
2024/01/12 06:08:54;;;;;;;;;;;-1.00;80.30;;;;;;4142078;28;20554;-84
2024/01/12 06:11:13;;;;;;;;;;;-1.00;80.30;;;;;;4122534;28;20437;-84
2024/01/12 06:13:14;;;;;;;;;;;-0.90;80.30;;;;;;4141704;28;20008;-84
2024/01/12 06:15:15;;;;;;;;;;;-0.90;80.40;;;;;;4147812;28;20020;-84
2024/01/12 06:17:15;;;;;;;;;;;-0.90;80.40;;;;;;4129982;28;19928;-84
2024/01/12 06:19:16;;;;;;;;;;;-0.80;80.50;;;;;;4146287;28;19924;-85
2024/01/12 06:21:16;;;;;;;;;;;-0.80;80.60;;;;;;4127045;28;20291;-85
2024/01/12 06:23:17;;;;;;;;;;;-0.80;80.60;;;;;;4129188;28;20036;-85
2024/01/12 06:25:18;;;;;;;;;;;-0.80;80.60;;;;;;4133618;28;19928;-84
2024/01/12 06:27:18;;;;;;;;;;;-0.60;80.70;;;;;;4136226;28;19917;-84
2024/01/12 06:29:19;;;;;;;;;;;-0.70;80.70;;;;;;4142294;28;19918;-84
2024/01/12 06:31:19;;;;;;;;;;;-0.70;80.80;;;;;;4126899;28;19972;-85
2024/01/12 06:33:20;;;;;;;;;;;-0.70;80.70;;;;;;4143968;28;20668;-83
2024/01/12 06:35:20;;;;;;;;;;;-0.60;80.90;;;;;;4128187;28;19924;-84
2024/01/12 06:37:21;;;;;;;;;;;-0.60;80.90;;;;;;4128671;28;19921;-84
2024/01/12 06:39:22;;;;;;;;;;;-0.60;81.00;;;;;;4143219;28;19928;-84
2024/01/12 06:41:23;;;;;;;;;;;-0.50;81.00;;;;;;4108981;28;20011;-84
2024/01/12 06:43:26;;;;;;;;;;;-0.40;81.10;;;;;;4126769;28;19913;-83
2024/01/12 06:45:36;;;;;;;;;;;-0.30;81.20;;;;;;4144017;28;19971;-84
2024/01/12 06:47:50;;;;;;;;;;;-0.40;81.20;;;;;;4141326;28;19970;-85
2024/01/12 06:49:55;;;;;;;;;;;-0.40;81.30;;;;;;4130765;28;20935;-85
2024/01/12 06:51:55;;;;;;;;;;;-0.30;81.40;;;;;;4144830;28;19925;-85
2024/01/12 06:53:56;;;;;;;;;;;-0.30;81.40;;;;;;4127357;28;19928;-85
2024/01/12 06:55:57;;;;;;;;;;;-0.20;81.50;;;;;;4133480;28;20386;-85
2024/01/12 06:58:01;;;;;;;;;;;-0.20;81.60;;;;;;4133530;28;20306;-85
2024/01/12 07:00:06;;;;;;;;;;;-0.10;81.60;;;;;;4130595;28;19917;-85
2024/01/12 07:02:07;;;;;;;;;;;-0.10;81.60;;;;;;4129550;28;20139;-85
2024/01/12 07:04:10;;;;;;;;;;;-0.10;81.60;;;;;;4117122;28;19973;-85
2024/01/12 07:06:25;;;;;;;;;;;0.00;81.70;;;;;;4142939;28;20665;-86
2024/01/12 07:08:46;;;;;;;;;;;0.00;81.70;;;;;;4131462;28;21250;-85
2024/01/12 07:10:46;;;;;;;;;;;0.10;81.90;;;;;;4131454;28;19918;-84
2024/01/12 07:13:07;;;;;;;;;;;0.10;81.90;;;;;;4128973;28;19921;-83
2024/01/12 07:15:27;;;;;;;;;;;0.10;82.00;;;;;;4137773;28;19921;-85
2024/01/12 07:17:50;;;;;;;;;;;0.10;82.00;;;;;;4125955;28;19917;-84
2024/01/12 07:20:11;;;;;;;;;;;0.30;82.10;;;;;;4127367;28;20871;-86
2024/01/12 07:22:32;;;;;;;;;;;0.30;82.20;;;;;;4124999;28;19948;-85
2024/01/12 07:24:52;;;;;;;;;;;0.40;82.20;;;;;;4132235;28;19918;-84
2024/01/12 07:27:13;;;;;;;;;;;0.40;82.30;;;;;;4131478;28;19922;-85
2024/01/12 07:29:33;;;;;;;;;;;0.40;82.30;;;;;;4129007;28;19922;-85
2024/01/12 07:31:54;;;;;;;;;;;0.50;82.40;;;;;;4127575;28;19936;-85
2024/01/12 07:34:15;;;;;;;;;;;0.60;82.50;;;;;;4130947;28;20000;-86
2024/01/12 07:36:36;;;;;;;;;;;0.60;82.40;;;;;;4126647;28;19968;-85
2024/01/12 07:38:57;;;;;;;;;;;0.80;82.50;;;;;;4130054;28;20045;-85
2024/01/12 07:41:17;;;;;;;;;;;0.70;82.50;;;;;;4129387;28;19929;-84
2024/01/12 07:43:35;;;;;;;;;;;0.70;82.40;;;;;;4129624;28;20011;-85
2024/01/12 07:45:56;;;;;;;;;;;0.80;82.50;;;;;;4131246;28;19917;-84
2024/01/12 07:47:56;;;;;;;;;;;1.00;82.50;;;;;;4132996;28;19921;-84
2024/01/12 07:50:17;;;;;;;;;;;0.90;82.50;;;;;;4129511;28;20392;-85
2024/01/12 07:52:37;;;;;;;;;;;1.10;82.60;;;;;;4130878;28;19921;-85
2024/01/12 07:54:58;;;;;;;;;;;1.00;82.50;;;;;;4141180;28;19917;-83
2024/01/12 07:57:19;;;;;;;;;;;1.00;82.50;;;;;;4137445;28;19913;-86
2024/01/12 07:59:45;;;;;;;;;;;1.00;82.50;;;;;;4132804;28;19947;-86
2024/01/12 08:02:06;;;;;;;;;;;1.00;82.40;;;;;;4129027;28;20065;-87
2024/01/12 08:04:27;;;;;;;;;;;1.10;82.50;;;;;;4130772;28;20734;-86
2024/01/12 08:06:48;;;;;;;;;;;1.10;82.50;;;;;;4130285;28;19918;-87
2024/01/12 08:09:10;;;;;;;;;;;1.10;82.50;;;;;;4131553;28;19921;-87
2024/01/12 08:11:30;;;;;;;;;;;1.20;82.50;;;;;;4131688;28;19927;-87
2024/01/12 08:13:52;;;;;;;;;;;1.30;82.60;;;;;;4132540;28;19918;-87
2024/01/12 08:16:12;;;;;;;;;;;1.20;82.50;;;;;;4147122;28;20007;-86
2024/01/12 08:18:34;;;;;;;;;;;1.30;82.50;;;;;;4130890;28;19928;-87
2024/01/12 08:20:55;;;;;;;;;;;1.30;82.50;;;;;;4127123;28;19968;-87
2024/01/12 08:23:15;;;;;;;;;;;1.30;82.50;;;;;;4132281;28;20617;-86
2024/01/12 08:25:36;;;;;;;;;;;1.30;82.50;;;;;;4134118;28;19917;-87
2024/01/12 08:27:56;;;;;;;;;;;1.40;82.50;;;;;;4130446;28;19980;-86
2024/01/12 08:30:17;;;;;;;;;;;1.40;82.60;;;;;;4132219;28;19921;-87
2024/01/12 08:32:38;;;;;;;;;;;1.40;82.60;;;;;;4133786;28;20059;-87
2024/01/12 08:34:58;;;;;;;;;;;1.50;82.60;;;;;;4129442;28;19913;-87
2024/01/12 08:37:19;;;;;;;;;;;1.50;82.60;;;;;;4132301;28;19913;-85
2024/01/12 08:39:39;;;;;;;;;;;1.50;82.60;;;;;;4134032;28;20563;-84
2024/01/12 08:42:00;;;;;;;;;;;1.60;82.70;;;;;;4130800;28;20637;-85
2024/01/12 08:44:21;;;;;;;;;;;1.60;82.70;;;;;;4135691;28;19983;-84
2024/01/12 08:46:41;;;;;;;;;;;1.60;82.70;;;;;;4129062;28;19957;-85
2024/01/12 08:49:02;;;;;;;;;;;1.70;82.80;;;;;;4131594;28;19968;-85
2024/01/12 08:51:23;;;;;;;;;;;1.70;82.80;;;;;;4131905;28;20035;-84
2024/01/12 08:53:44;;;;;;;;;;;1.70;82.80;;;;;;4127689;28;19937;-85
2024/01/12 08:56:07;;;;;;;;;;;1.70;82.80;;;;;;4144371;28;19928;-84
2024/01/12 08:58:27;;;;;;;;;;;1.80;82.90;;;;;;4146656;28;20256;-85
2024/01/12 09:00:48;;;;;;;;;;;1.80;83.00;;;;;;4131247;28;19922;-84
2024/01/12 09:03:08;;;;;;;;;;;1.90;83.00;;;;;;4129859;28;20061;-85
2024/01/12 09:05:29;;;;;;;;;;;1.90;82.90;;;;;;4132046;28;20299;-85
2024/01/12 09:07:49;;;;;;;;;;;1.90;83.00;;;;;;4130896;28;20399;-84
2024/01/12 09:10:10;;;;;;;;;;;2.00;83.20;;;;;;4131878;28;19948;-84
2024/01/12 09:12:30;;;;;;;;;;;2.00;83.00;;;;;;4131378;28;19922;-84
2024/01/12 09:14:52;;;;;;;;;;;2.00;83.00;;;;;;4132179;28;19918;-84
2024/01/12 09:17:13;;;;;;;;;;;2.10;83.10;;;;;;4130569;28;19913;-83
2024/01/12 09:19:32;;;;;;;;;;;2.10;83.00;;;;;;4130794;28;21306;-83
2024/01/12 09:21:51;;;;;;;;;;;2.20;83.10;;;;;;4127368;28;19996;-83
2024/01/12 09:24:11;;;;;;;;;;;2.20;83.10;;;;;;4140259;28;19929;-83
2024/01/12 09:26:31;;;;;;;;;;;2.20;83.90;;;;;;4130759;28;19928;-83
2024/01/12 09:28:50;;;;;;;;;;;2.30;83.90;;;;;;4134195;28;20438;-83
2024/01/12 09:31:09;;;;;;;;;;;2.30;83.20;;;;;;4129688;28;19924;-83
2024/01/12 09:33:29;;;;;;;;;;;2.50;83.40;;;;;;4129978;28;19933;-83
2024/01/12 09:35:48;;;;;;;;;;;2.30;83.20;;;;;;4128085;28;20247;-83
2024/01/12 09:37:49;;;;;;;;;;;2.40;83.20;;;;;;4128541;28;20016;-83
2024/01/12 09:39:49;;;;;;;;;;;2.40;83.20;;;;;;4126454;28;19921;-83
2024/01/12 09:41:51;;;;;;;;;;;2.60;83.40;;;;;;4126965;28;19940;-83
2024/01/12 09:43:57;;;;;;;;;;;2.40;83.20;;;;;;4126231;28;19925;-84
2024/01/12 09:46:04;;;;;;;;;;;2.40;83.10;;;;;;4128185;28;20000;-83
2024/01/12 09:48:04;;;;;;;;;;;2.40;83.20;;;;;;4126514;28;21078;-83
2024/01/12 09:50:05;;;;;;;;;;;2.50;83.30;;;;;;4147865;28;19917;-83
2024/01/12 09:52:07;;;;;;;;;;;2.50;83.20;;;;;;4128616;28;20032;-84
2024/01/12 09:54:08;;;;;;;;;;;2.50;83.20;;;;;;4129400;28;20421;-85
2024/01/12 09:56:08;;;;;;;;;;;2.50;83.30;;;;;;4130343;28;19918;-85
2024/01/12 09:58:10;;;;;;;;;;;2.60;83.30;;;;;;4129686;28;20004;-85
2024/01/12 10:00:11;;;;;;;;;;;2.60;83.30;;;;;;4128801;28;19932;-85
2024/01/12 10:02:15;;;;;;;;;;;2.60;83.40;;;;;;4127215;28;19948;-85
2024/01/12 10:04:16;;;;;;;;;;;2.80;83.50;;;;;;4131643;28;19932;-85
2024/01/12 10:06:25;;;;;;;;;;;2.70;83.50;;;;;;4126630;28;19933;-86
2024/01/12 10:08:37;;;;;;;;;;;2.70;83.30;;;;;;4132171;28;19922;-86
2024/01/12 10:10:39;;;;;;;;;;;2.70;83.20;;;;;;4123269;28;19922;-86
2024/01/12 10:13:02;;;;;;;;;;;2.70;83.10;;;;;;4125852;28;20204;-86
2024/01/12 10:15:11;;;;;;;;;;;2.80;83.10;;;;;;4126854;28;20528;-86
2024/01/12 10:17:33;;;;;;;;;;;2.80;83.10;;;;;;4126265;28;19971;-86
2024/01/12 10:19:55;;;;;;;;;;;2.80;83.00;;;;;;4126791;28;19952;-86
2024/01/12 10:22:16;;;;;;;;;;;2.80;83.00;;;;;;4128423;28;19922;-84
2024/01/12 10:24:36;;;;;;;;;;;2.90;83.10;;;;;;4124299;28;20197;-86
2024/01/12 10:27:00;;;;;;;;;;;2.90;83.10;;;;;;4127779;28;20816;-86
2024/01/12 10:29:20;;;;;;;;;;;2.90;83.10;;;;;;4129115;28;19940;-86
2024/01/12 10:31:43;;;;;;;;;;;2.90;83.10;;;;;;4127760;28;20098;-86
2024/01/12 10:34:06;;;;;;;;;;;3.00;83.10;;;;;;4123698;28;19928;-86
2024/01/12 10:36:28;;;;;;;;;;;3.00;83.10;;;;;;4123382;28;20010;-87
2024/01/12 10:38:29;;;;;;;;;;;3.10;83.30;;;;;;4126723;28;20854;-85
2024/01/12 10:40:29;;;;;;;;;;;3.10;83.30;;;;;;4128868;28;19921;-85
2024/01/12 10:42:54;;;;;;;;;;;3.20;83.20;;;;;;4125541;28;20827;-86
2024/01/12 10:45:19;;;;;;;;;;;3.20;83.20;;;;;;4127473;28;20012;-87
2024/01/12 10:47:41;;;;;;;;;;;3.20;83.00;;;;;;4140992;28;19927;-86
2024/01/12 10:50:06;;;;;;;;;;;3.30;83.00;;;;;;4129286;28;19926;-87
2024/01/12 10:52:46;;;;;;;;;;;3.30;82.80;;;;;;4126380;28;19948;-86
2024/01/12 10:55:10;;;;;;;;;;;3.30;82.80;;;;;;4139707;28;20275;-86
2024/01/12 10:57:32;;;;;;;;;;;3.30;82.60;;;;;;4128423;28;19928;-86
2024/01/12 10:59:53;;;;;;;;;;;3.40;82.60;;;;;;4127186;28;19943;-87
2024/01/12 11:02:14;;;;;;;;;;;3.40;82.30;;;;;;4125925;28;19917;-86
2024/01/12 11:04:35;;;;;;;;;;;3.40;82.20;;;;;;4126643;28;19949;-87
2024/01/12 11:06:58;;;;;;;;;;;3.40;82.20;;;;;;4126724;28;20967;-86
2024/01/12 11:09:19;;;;;;;;;;;3.50;82.20;;;;;;4127364;28;20402;-87
2024/01/12 11:11:46;;;;;;;;;;;3.50;82.20;;;;;;4128517;28;20404;-87
2024/01/12 11:14:07;;;;;;;;;;;3.50;82.00;;;;;;4141639;28;20390;-87
2024/01/12 11:16:28;;;;;;;;;;;3.50;81.80;;;;;;4126720;28;19917;-87
2024/01/12 11:18:48;;;;;;;;;;;3.60;81.90;;;;;;4125898;28;20303;-87
2024/01/12 11:21:10;;;;;;;;;;;3.60;81.80;;;;;;4129885;28;19914;-86
2024/01/12 11:23:43;;;;;;;;;;;3.60;81.70;;;;;;4130208;28;20360;-86
2024/01/12 11:26:04;;;;;;;;;;;3.60;81.70;;;;;;4134326;28;20339;-87
2024/01/12 11:28:34;;;;;;;;;;;3.80;81.90;;;;;;4129530;28;20849;-87
2024/01/12 11:31:00;;;;;;;;;;;3.70;81.60;;;;;;4130778;28;19933;-87
2024/01/12 11:33:20;;;;;;;;;;;3.70;81.60;;;;;;4127413;28;20635;-87
2024/01/12 11:35:44;;;;;;;;;;;3.70;81.50;;;;;;4127771;28;20315;-87
2024/01/12 11:38:06;;;;;;;;;;;3.80;81.60;;;;;;4127828;28;20733;-88
2024/01/12 11:40:27;;;;;;;;;;;3.70;81.30;;;;;;4126427;28;19914;-86
2024/01/12 11:42:48;;;;;;;;;;;3.90;81.50;;;;;;4124592;28;20298;-88
2024/01/12 11:45:09;;;;;;;;;;;4.00;81.50;;;;;;4128108;28;20346;-88
2024/01/12 11:47:30;;;;;;;;;;;3.80;81.20;;;;;;4128615;28;20597;-88
2024/01/12 11:49:50;;;;;;;;;;;4.00;81.30;;;;;;4131559;28;19975;-87
2024/01/12 11:52:11;;;;;;;;;;;3.80;81.80;;;;;;4142629;28;20455;-87
2024/01/12 11:54:32;;;;;;;;;;;3.90;81.80;;;;;;4131167;28;19925;-87
2024/01/12 11:56:53;;;;;;;;;;;3.90;81.00;;;;;;4131692;28;20457;-87
2024/01/12 11:59:13;;;;;;;;;;;3.90;80.70;;;;;;4133159;28;20496;-87
2024/01/12 12:01:34;;;;;;;;;;;3.90;80.50;;;;;;4146563;28;19921;-87
2024/01/12 12:03:54;;;;;;;;;;;4.00;80.00;;;;;;4140406;28;19925;-87
2024/01/12 12:06:15;;;;;;;;;;;3.90;79.90;;;;;;4141280;28;19921;-87
2024/01/12 12:08:35;;;;;;;;;;;3.90;79.40;;;;;;4131423;28;19956;-87
2024/01/12 12:10:56;;;;;;;;;;;3.80;79.30;;;;;;4136092;28;20536;-87
2024/01/12 12:13:16;;;;;;;;;;;3.90;79.60;;;;;;4130337;28;20362;-87
2024/01/12 12:15:37;;;;;;;;;;;3.90;79.30;;;;;;4128061;28;19918;-87
2024/01/12 12:17:58;;;;;;;;;;;3.80;79.30;;;;;;4130898;28;19931;-88
2024/01/12 12:20:18;;;;;;;;;;;3.90;79.30;;;;;;4128424;28;19917;-87
2024/01/12 12:22:39;;;;;;;;;;;3.90;79.10;;;;;;4134752;28;20387;-87
2024/01/12 12:24:59;;;;;;;;;;;3.90;79.10;;;;;;4133490;28;19949;-87
2024/01/12 12:27:20;;;;;;;;;;;3.90;78.90;;;;;;4129452;28;19924;-86
2024/01/12 12:29:41;;;;;;;;;;;3.90;78.90;;;;;;4146066;28;19914;-87
2024/01/12 12:32:01;;;;;;;;;;;4.10;79.20;;;;;;4136617;28;20399;-87
2024/01/12 12:34:22;;;;;;;;;;;3.80;78.80;;;;;;4129033;28;22553;-86
2024/01/12 12:36:42;;;;;;;;;;;3.90;78.90;;;;;;4134394;28;20524;-87
2024/01/12 12:39:01;;;;;;;;;;;3.90;78.90;;;;;;4132746;28;20430;-87
2024/01/12 12:41:21;;;;;;;;;;;3.90;78.90;;;;;;4127783;28;20048;-87
2024/01/12 12:43:40;;;;;;;;;;;3.90;78.70;;;;;;4130930;28;19944;-87
2024/01/12 12:45:59;;;;;;;;;;;3.80;78.50;;;;;;4126698;28;19960;-87
2024/01/12 12:48:19;;;;;;;;;;;3.80;79.10;;;;;;4126145;28;19968;-87
2024/01/12 12:50:38;;;;;;;;;;;3.90;78.60;;;;;;4126878;28;20434;-87
2024/01/12 12:52:57;;;;;;;;;;;3.70;78.40;;;;;;4129578;28;19928;-87
2024/01/12 12:55:16;;;;;;;;;;;3.90;78.50;;;;;;4126964;28;19924;-86
2024/01/12 12:57:37;;;;;;;;;;;3.80;78.40;;;;;;4124879;28;19928;-87
2024/01/12 12:59:57;;;;;;;;;;;3.80;78.50;;;;;;4124910;28;19944;-87
2024/01/12 13:02:16;;;;;;;;;;;3.80;78.60;;;;;;4129158;28;20606;-86
2024/01/12 13:04:35;;;;;;;;;;;3.70;78.70;;;;;;4125916;28;19944;-88
2024/01/12 13:06:55;;;;;;;;;;;3.80;78.70;;;;;;4142576;28;20394;-87
2024/01/12 13:09:14;;;;;;;;;;;3.70;78.80;;;;;;4138711;28;20219;-86
2024/01/12 13:11:33;;;;;;;;;;;3.70;79.50;;;;;;4127464;28;19960;-87
2024/01/12 13:13:52;;;;;;;;;;;3.70;78.80;;;;;;4124622;28;19940;-87
2024/01/12 13:16:12;;;;;;;;;;;3.80;78.90;;;;;;4125362;28;19925;-89
2024/01/12 13:18:31;;;;;;;;;;;3.90;79.00;;;;;;4124924;28;20803;-87
2024/01/12 13:20:50;;;;;;;;;;;3.80;79.00;;;;;;4140040;28;20012;-86
2024/01/12 13:23:10;;;;;;;;;;;3.90;79.00;;;;;;4126805;28;19971;-87
2024/01/12 13:25:30;;;;;;;;;;;3.80;79.10;;;;;;4129326;28;19959;-87
2024/01/12 13:27:49;;;;;;;;;;;3.80;79.20;;;;;;4127101;28;19958;-86